Αρχική σελίδα
METAR-TAF:

METAR-TAF

Αεροδρόμια :

Παρναΐμπα, Πιαουί, Βραζιλία

γεωγραφικό πλάτος: 02-55S, γεωγραφικό μήκος: 041-45W, υψόμετρο: 5 μ

Παρών καιρός

Η αναφορά έγινε 1 ώρα και 12 λεπτά πριν, στις 17:00 UTC
Άνεμος 7 kt από Α/NA
Θερμοκρασία 34°C
Υγρασία 50%
Πίεση 1010 hPa
Ορατότητα 10 χλμ και άνω
Διάσπαρτα νέφη σε ύψος 2000 πόδια

METAR: SBPB 201700Z 11007KT 9999 SCT020 34/22 Q1010

Χρόνος: 15:12 (18:12 UTC)

Πρόγνωση Καιρού

Η αναφορά έγινε 3 ώρες και 2 λεπτά πριν, στις 15:10 UTC
Η πρόγνωση ισχύει από τις 20 στις 18 UTC έως τις 21 στις 06 UTC
Άνεμος 10 kt από Α/BA
Ορατότητα 10 χλμ και άνω
Διάσπαρτα νέφη σε ύψος 2000 πόδια

TAF: SBPB 201510Z 2018/2106 07010KT 9999 SCT020 TX32/2018Z TN29/2021Z RMK PHD

Μετεωρολογικές αναφορές και προγνώσεις για περισσότερα από 4000 αεροδρόμια (δελτία METAR και TAF).

Οι διαθέσιμοι σταθμοί απεικονίζονται στο χάρτη με κίτρινες και κόκκινες κουκκίδες.

Μετακινήστε το ποντίκι πάνω από τις κουκκίδες για να δείτε το όνομα του σταθμού.

Στη συνέχεια, κάντε κλικ για να δείτε τις μετεωρολογικές αναφορές και τις προγνώσεις καιρού.

Για να αλλάξετε το χάρτη: κάντε κλικ στα πράσινα κουμπιά με τον μαύρο σταυρό για να ζουμάρετε, στο πράσινο κουμπί με την παύλα για να αφαιρέσετε το ζουμ ή στα πράσινα βέλη για να αντιπαραβάλλετε χάρτες.


METAR-TAF: